<?xml version="1.0" encoding="UTF-8" ?>
<gpx version="1.1" creator="CartoExploreur 3D 1.15" xmlns:xsi="http://www.w3.org/2001/XMLSchema-instance" xmlns="http://www.topografix.com/GPX/1/1" xsi:schemaLocation="http://www.topografix.com/GPX/1/1 http://www.topografix.com/GPX/1/1/gpx.xsd">
    <metadata>
        <time>2013-04-26T14:02:11Z</time>
        <bounds maxlat="47.338718387" maxlon="3.706177062" minlat="47.310368104" minlon="3.674796748" />
    </metadata>
    <trk>
        <name>25-04-2013 16-09-18</name>
        <trkseg>
            <trkpt lat="47.316323163" lon="3.678831788">
                <ele>182.000000</ele>
                <time>2013-04-25T16:09:21Z</time>
            </trkpt>
            <trkpt lat="47.316353164" lon="3.679071791">
                <ele>183.000000</ele>
                <time>2013-04-25T16:09:36Z</time>
            </trkpt>
            <trkpt lat="47.316383164" lon="3.679251793">
                <ele>181.000000</ele>
                <time>2013-04-25T16:09:39Z</time>
            </trkpt>
            <trkpt lat="47.316473165" lon="3.679716797">
                <ele>180.000000</ele>
                <time>2013-04-25T16:09:44Z</time>
            </trkpt>
            <trkpt lat="47.316503165" lon="3.679956800">
                <ele>178.000000</ele>
                <time>2013-04-25T16:09:46Z</time>
            </trkpt>
            <trkpt lat="47.316548165" lon="3.680196802">
                <ele>178.000000</ele>
                <time>2013-04-25T16:09:48Z</time>
            </trkpt>
            <trkpt lat="47.316668167" lon="3.680991810">
                <ele>181.000000</ele>
                <time>2013-04-25T16:09:54Z</time>
            </trkpt>
            <trkpt lat="47.316878169" lon="3.682401824">
                <ele>188.000000</ele>
                <time>2013-04-25T16:10:06Z</time>
            </trkpt>
            <trkpt lat="47.317013170" lon="3.682476825">
                <ele>191.000000</ele>
                <time>2013-04-25T16:10:09Z</time>
            </trkpt>
            <trkpt lat="47.317178172" lon="3.682476825">
                <ele>192.000000</ele>
                <time>2013-04-25T16:10:12Z</time>
            </trkpt>
            <trkpt lat="47.317373174" lon="3.682506825">
                <ele>192.000000</ele>
                <time>2013-04-25T16:10:15Z</time>
            </trkpt>
            <trkpt lat="47.317583176" lon="3.682566826">
                <ele>193.000000</ele>
                <time>2013-04-25T16:10:17Z</time>
            </trkpt>
            <trkpt lat="47.317733177" lon="3.682611826">
                <ele>194.000000</ele>
                <time>2013-04-25T16:10:20Z</time>
            </trkpt>
            <trkpt lat="47.318273183" lon="3.682776828">
                <ele>192.000000</ele>
                <time>2013-04-25T16:10:27Z</time>
            </trkpt>
            <trkpt lat="47.318468185" lon="3.682866829">
                <ele>191.000000</ele>
                <time>2013-04-25T16:10:29Z</time>
            </trkpt>
            <trkpt lat="47.318918189" lon="3.683106831">
                <ele>188.000000</ele>
                <time>2013-04-25T16:10:34Z</time>
            </trkpt>
            <trkpt lat="47.319098191" lon="3.683241832">
                <ele>186.000000</ele>
                <time>2013-04-25T16:10:36Z</time>
            </trkpt>
            <trkpt lat="47.319368194" lon="3.683481835">
                <ele>186.000000</ele>
                <time>2013-04-25T16:10:39Z</time>
            </trkpt>
            <trkpt lat="47.319518195" lon="3.683691837">
                <ele>185.000000</ele>
                <time>2013-04-25T16:10:41Z</time>
            </trkpt>
            <trkpt lat="47.319638196" lon="3.683931839">
                <ele>185.000000</ele>
                <time>2013-04-25T16:10:43Z</time>
            </trkpt>
            <trkpt lat="47.320298203" lon="3.685266853">
                <ele>181.000000</ele>
                <time>2013-04-25T16:10:54Z</time>
            </trkpt>
            <trkpt lat="47.320433204" lon="3.685461855">
                <ele>182.000000</ele>
                <time>2013-04-25T16:10:56Z</time>
            </trkpt>
            <trkpt lat="47.320673207" lon="3.685611856">
                <ele>183.000000</ele>
                <time>2013-04-25T16:10:59Z</time>
            </trkpt>
            <trkpt lat="47.320868209" lon="3.685416854">
                <ele>182.000000</ele>
                <time>2013-04-25T16:11:02Z</time>
            </trkpt>
            <trkpt lat="47.321213212" lon="3.685056851">
                <ele>180.000000</ele>
                <time>2013-04-25T16:11:07Z</time>
            </trkpt>
            <trkpt lat="47.321333213" lon="3.684876849">
                <ele>180.000000</ele>
                <time>2013-04-25T16:11:09Z</time>
            </trkpt>
            <trkpt lat="47.321558216" lon="3.684636846">
                <ele>180.000000</ele>
                <time>2013-04-25T16:11:12Z</time>
            </trkpt>
            <trkpt lat="47.321738217" lon="3.684546845">
                <ele>181.000000</ele>
                <time>2013-04-25T16:11:14Z</time>
            </trkpt>
            <trkpt lat="47.321993220" lon="3.684486845">
                <ele>181.000000</ele>
                <time>2013-04-25T16:11:17Z</time>
            </trkpt>
            <trkpt lat="47.322233222" lon="3.684381844">
                <ele>183.000000</ele>
                <time>2013-04-25T16:11:20Z</time>
            </trkpt>
            <trkpt lat="47.322428224" lon="3.684186842">
                <ele>184.000000</ele>
                <time>2013-04-25T16:11:23Z</time>
            </trkpt>
            <trkpt lat="47.322533225" lon="3.684021840">
                <ele>186.000000</ele>
                <time>2013-04-25T16:11:25Z</time>
            </trkpt>
            <trkpt lat="47.322683227" lon="3.683736837">
                <ele>187.000000</ele>
                <time>2013-04-25T16:11:28Z</time>
            </trkpt>
            <trkpt lat="47.322818228" lon="3.683691837">
                <ele>189.000000</ele>
                <time>2013-04-25T16:11:32Z</time>
            </trkpt>
            <trkpt lat="47.322938229" lon="3.683931839">
                <ele>187.000000</ele>
                <time>2013-04-25T16:11:35Z</time>
            </trkpt>
            <trkpt lat="47.323088231" lon="3.684231842">
                <ele>184.000000</ele>
                <time>2013-04-25T16:11:38Z</time>
            </trkpt>
            <trkpt lat="47.323283233" lon="3.684666847">
                <ele>186.000000</ele>
                <time>2013-04-25T16:11:42Z</time>
            </trkpt>
            <trkpt lat="47.323418234" lon="3.685056851">
                <ele>185.000000</ele>
                <time>2013-04-25T16:11:46Z</time>
            </trkpt>
            <trkpt lat="47.323403234" lon="3.685326853">
                <ele>185.000000</ele>
                <time>2013-04-25T16:11:48Z</time>
            </trkpt>
            <trkpt lat="47.323433234" lon="3.685746857">
                <ele>184.000000</ele>
                <time>2013-04-25T16:11:51Z</time>
            </trkpt>
            <trkpt lat="47.323553236" lon="3.685941859">
                <ele>182.000000</ele>
                <time>2013-04-25T16:11:53Z</time>
            </trkpt>
            <trkpt lat="47.323718237" lon="3.686106861">
                <ele>182.000000</ele>
                <time>2013-04-25T16:11:55Z</time>
            </trkpt>
            <trkpt lat="47.323958240" lon="3.686391864">
                <ele>183.000000</ele>
                <time>2013-04-25T16:11:58Z</time>
            </trkpt>
            <trkpt lat="47.324078241" lon="3.686586866">
                <ele>181.000000</ele>
                <time>2013-04-25T16:12:00Z</time>
            </trkpt>
            <trkpt lat="47.324243242" lon="3.686931869">
                <ele>180.000000</ele>
                <time>2013-04-25T16:12:03Z</time>
            </trkpt>
            <trkpt lat="47.324453245" lon="3.687186872">
                <ele>182.000000</ele>
                <time>2013-04-25T16:12:06Z</time>
            </trkpt>
            <trkpt lat="47.324603246" lon="3.687276873">
                <ele>187.000000</ele>
                <time>2013-04-25T16:12:08Z</time>
            </trkpt>
            <trkpt lat="47.324873249" lon="3.687396874">
                <ele>187.000000</ele>
                <time>2013-04-25T16:12:11Z</time>
            </trkpt>
            <trkpt lat="47.325158252" lon="3.687531875">
                <ele>188.000000</ele>
                <time>2013-04-25T16:12:14Z</time>
            </trkpt>
            <trkpt lat="47.325338253" lon="3.687606876">
                <ele>190.000000</ele>
                <time>2013-04-25T16:12:16Z</time>
            </trkpt>
            <trkpt lat="47.325578256" lon="3.687786878">
                <ele>191.000000</ele>
                <time>2013-04-25T16:12:19Z</time>
            </trkpt>
            <trkpt lat="47.326013260" lon="3.688131881">
                <ele>196.000000</ele>
                <time>2013-04-25T16:12:25Z</time>
            </trkpt>
            <trkpt lat="47.326148261" lon="3.688176882">
                <ele>199.000000</ele>
                <time>2013-04-25T16:12:28Z</time>
            </trkpt>
            <trkpt lat="47.326193262" lon="3.687951880">
                <ele>204.000000</ele>
                <time>2013-04-25T16:12:33Z</time>
            </trkpt>
            <trkpt lat="47.326253263" lon="3.687711877">
                <ele>204.000000</ele>
                <time>2013-04-25T16:12:35Z</time>
            </trkpt>
            <trkpt lat="47.326358264" lon="3.687441874">
                <ele>204.000000</ele>
                <time>2013-04-25T16:12:39Z</time>
            </trkpt>
            <trkpt lat="47.326448264" lon="3.687081871">
                <ele>203.000000</ele>
                <time>2013-04-25T16:12:42Z</time>
            </trkpt>
            <trkpt lat="47.326493265" lon="3.686826868">
                <ele>205.000000</ele>
                <time>2013-04-25T16:12:44Z</time>
            </trkpt>
            <trkpt lat="47.326538265" lon="3.686391864">
                <ele>207.000000</ele>
                <time>2013-04-25T16:12:47Z</time>
            </trkpt>
            <trkpt lat="47.326538265" lon="3.686091861">
                <ele>209.000000</ele>
                <time>2013-04-25T16:12:49Z</time>
            </trkpt>
            <trkpt lat="47.326508265" lon="3.685641856">
                <ele>212.000000</ele>
                <time>2013-04-25T16:12:52Z</time>
            </trkpt>
            <trkpt lat="47.326388264" lon="3.683841838">
                <ele>222.000000</ele>
                <time>2013-04-25T16:13:04Z</time>
            </trkpt>
            <trkpt lat="47.326448264" lon="3.683601836">
                <ele>224.000000</ele>
                <time>2013-04-25T16:13:06Z</time>
            </trkpt>
            <trkpt lat="47.326613266" lon="3.683346833">
                <ele>226.000000</ele>
                <time>2013-04-25T16:13:09Z</time>
            </trkpt>
            <trkpt lat="47.326793268" lon="3.683211832">
                <ele>230.000000</ele>
                <time>2013-04-25T16:13:11Z</time>
            </trkpt>
            <trkpt lat="47.327063271" lon="3.683031830">
                <ele>233.000000</ele>
                <time>2013-04-25T16:13:14Z</time>
            </trkpt>
            <trkpt lat="47.327918279" lon="3.682521825">
                <ele>236.000000</ele>
                <time>2013-04-25T16:13:23Z</time>
            </trkpt>
            <trkpt lat="47.328098281" lon="3.682356824">
                <ele>236.000000</ele>
                <time>2013-04-25T16:13:25Z</time>
            </trkpt>
            <trkpt lat="47.328248282" lon="3.682161822">
                <ele>237.000000</ele>
                <time>2013-04-25T16:13:27Z</time>
            </trkpt>
            <trkpt lat="47.328398284" lon="3.681936819">
                <ele>237.000000</ele>
                <time>2013-04-25T16:13:29Z</time>
            </trkpt>
            <trkpt lat="47.328563286" lon="3.681561816">
                <ele>237.000000</ele>
                <time>2013-04-25T16:13:32Z</time>
            </trkpt>
            <trkpt lat="47.328638286" lon="3.681306813">
                <ele>237.000000</ele>
                <time>2013-04-25T16:13:34Z</time>
            </trkpt>
            <trkpt lat="47.328668287" lon="3.681066811">
                <ele>235.000000</ele>
                <time>2013-04-25T16:13:36Z</time>
            </trkpt>
            <trkpt lat="47.328713287" lon="3.680796808">
                <ele>235.000000</ele>
                <time>2013-04-25T16:13:39Z</time>
            </trkpt>
            <trkpt lat="47.328833288" lon="3.680631806">
                <ele>238.000000</ele>
                <time>2013-04-25T16:13:43Z</time>
            </trkpt>
            <trkpt lat="47.328998290" lon="3.680571806">
                <ele>243.000000</ele>
                <time>2013-04-25T16:13:46Z</time>
            </trkpt>
            <trkpt lat="47.330078301" lon="3.680196802">
                <ele>246.000000</ele>
                <time>2013-04-25T16:13:58Z</time>
            </trkpt>
            <trkpt lat="47.331128311" lon="3.679821798">
                <ele>242.000000</ele>
                <time>2013-04-25T16:14:08Z</time>
            </trkpt>
            <trkpt lat="47.331728317" lon="3.679656797">
                <ele>242.000000</ele>
                <time>2013-04-25T16:14:14Z</time>
            </trkpt>
            <trkpt lat="47.332088321" lon="3.679641796">
                <ele>243.000000</ele>
                <time>2013-04-25T16:14:17Z</time>
            </trkpt>
            <trkpt lat="47.333363334" lon="3.679596796">
                <ele>230.000000</ele>
                <time>2013-04-25T16:14:30Z</time>
            </trkpt>
            <trkpt lat="47.333513335" lon="3.679551796">
                <ele>225.000000</ele>
                <time>2013-04-25T16:14:32Z</time>
            </trkpt>
            <trkpt lat="47.333708337" lon="3.679446794">
                <ele>220.000000</ele>
                <time>2013-04-25T16:14:35Z</time>
            </trkpt>
            <trkpt lat="47.334218342" lon="3.679266793">
                <ele>225.000000</ele>
                <time>2013-04-25T16:14:40Z</time>
            </trkpt>
            <trkpt lat="47.334503345" lon="3.679116791">
                <ele>223.000000</ele>
                <time>2013-04-25T16:14:43Z</time>
            </trkpt>
            <trkpt lat="47.334863349" lon="3.678981790">
                <ele>226.000000</ele>
                <time>2013-04-25T16:14:46Z</time>
            </trkpt>
            <trkpt lat="47.335658357" lon="3.678681787">
                <ele>231.000000</ele>
                <time>2013-04-25T16:14:53Z</time>
            </trkpt>
            <trkpt lat="47.335853359" lon="3.678561786">
                <ele>233.000000</ele>
                <time>2013-04-25T16:14:55Z</time>
            </trkpt>
            <trkpt lat="47.336243362" lon="3.678366784">
                <ele>236.000000</ele>
                <time>2013-04-25T16:14:58Z</time>
            </trkpt>
            <trkpt lat="47.336858369" lon="3.678081781">
                <ele>239.000000</ele>
                <time>2013-04-25T16:15:05Z</time>
            </trkpt>
            <trkpt lat="47.337038370" lon="3.677976780">
                <ele>243.000000</ele>
                <time>2013-04-25T16:15:07Z</time>
            </trkpt>
            <trkpt lat="47.337338373" lon="3.677841778">
                <ele>243.000000</ele>
                <time>2013-04-25T16:15:10Z</time>
            </trkpt>
            <trkpt lat="47.338178382" lon="3.677556776">
                <ele>254.000000</ele>
                <time>2013-04-25T16:15:18Z</time>
            </trkpt>
            <trkpt lat="47.338313383" lon="3.677601776">
                <ele>254.000000</ele>
                <time>2013-04-25T16:15:20Z</time>
            </trkpt>
            <trkpt lat="47.338238382" lon="3.677811778">
                <ele>250.000000</ele>
                <time>2013-04-25T16:15:25Z</time>
            </trkpt>
            <trkpt lat="47.338178382" lon="3.678066781">
                <ele>244.000000</ele>
                <time>2013-04-25T16:15:28Z</time>
            </trkpt>
            <trkpt lat="47.338118381" lon="3.678291783">
                <ele>240.000000</ele>
                <time>2013-04-25T16:15:30Z</time>
            </trkpt>
            <trkpt lat="47.338043380" lon="3.678576786">
                <ele>236.000000</ele>
                <time>2013-04-25T16:15:32Z</time>
            </trkpt>
            <trkpt lat="47.337938379" lon="3.679041790">
                <ele>234.000000</ele>
                <time>2013-04-25T16:15:35Z</time>
            </trkpt>
            <trkpt lat="47.337908379" lon="3.679371794">
                <ele>235.000000</ele>
                <time>2013-04-25T16:15:37Z</time>
            </trkpt>
            <trkpt lat="47.337818378" lon="3.679866799">
                <ele>236.000000</ele>
                <time>2013-04-25T16:15:40Z</time>
            </trkpt>
            <trkpt lat="47.337728377" lon="3.680196802">
                <ele>238.000000</ele>
                <time>2013-04-25T16:15:42Z</time>
            </trkpt>
            <trkpt lat="47.337428374" lon="3.681261813">
                <ele>241.000000</ele>
                <time>2013-04-25T16:15:49Z</time>
            </trkpt>
            <trkpt lat="47.337443374" lon="3.681546815">
                <ele>241.000000</ele>
                <time>2013-04-25T16:15:51Z</time>
            </trkpt>
            <trkpt lat="47.337518375" lon="3.681801818">
                <ele>239.000000</ele>
                <time>2013-04-25T16:15:53Z</time>
            </trkpt>
            <trkpt lat="47.337848378" lon="3.682851829">
                <ele>234.000000</ele>
                <time>2013-04-25T16:16:00Z</time>
            </trkpt>
            <trkpt lat="47.337818378" lon="3.683106831">
                <ele>233.000000</ele>
                <time>2013-04-25T16:16:04Z</time>
            </trkpt>
            <trkpt lat="47.337683377" lon="3.683286833">
                <ele>234.000000</ele>
                <time>2013-04-25T16:16:07Z</time>
            </trkpt>
            <trkpt lat="47.337593376" lon="3.683541835">
                <ele>235.000000</ele>
                <time>2013-04-25T16:16:10Z</time>
            </trkpt>
            <trkpt lat="47.337548375" lon="3.683751838">
                <ele>236.000000</ele>
                <time>2013-04-25T16:16:12Z</time>
            </trkpt>
            <trkpt lat="47.337503375" lon="3.683976840">
                <ele>237.000000</ele>
                <time>2013-04-25T16:16:14Z</time>
            </trkpt>
            <trkpt lat="47.337488375" lon="3.684261843">
                <ele>238.000000</ele>
                <time>2013-04-25T16:16:17Z</time>
            </trkpt>
            <trkpt lat="47.337503375" lon="3.684546845">
                <ele>239.000000</ele>
                <time>2013-04-25T16:16:20Z</time>
            </trkpt>
            <trkpt lat="47.337638376" lon="3.684606846">
                <ele>237.000000</ele>
                <time>2013-04-25T16:16:31Z</time>
            </trkpt>
            <trkpt lat="47.337788378" lon="3.684516845">
                <ele>236.000000</ele>
                <time>2013-04-25T16:16:34Z</time>
            </trkpt>
            <trkpt lat="47.337653377" lon="3.684606846">
                <ele>238.000000</ele>
                <time>2013-04-25T16:16:47Z</time>
            </trkpt>
            <trkpt lat="47.337518375" lon="3.684561846">
                <ele>239.000000</ele>
                <time>2013-04-25T16:16:51Z</time>
            </trkpt>
            <trkpt lat="47.337458375" lon="3.684741847">
                <ele>237.000000</ele>
                <time>2013-04-25T16:16:59Z</time>
            </trkpt>
            <trkpt lat="47.337323373" lon="3.684891849">
                <ele>237.000000</ele>
                <time>2013-04-25T16:17:02Z</time>
            </trkpt>
            <trkpt lat="47.337188372" lon="3.684951850">
                <ele>236.000000</ele>
                <time>2013-04-25T16:17:06Z</time>
            </trkpt>
            <trkpt lat="47.336993370" lon="3.685041850">
                <ele>235.000000</ele>
                <time>2013-04-25T16:17:10Z</time>
            </trkpt>
            <trkpt lat="47.336873369" lon="3.685146851">
                <ele>236.000000</ele>
                <time>2013-04-25T16:17:12Z</time>
            </trkpt>
            <trkpt lat="47.336678367" lon="3.685341853">
                <ele>234.000000</ele>
                <time>2013-04-25T16:17:15Z</time>
            </trkpt>
            <trkpt lat="47.336468365" lon="3.685596856">
                <ele>234.000000</ele>
                <time>2013-04-25T16:17:18Z</time>
            </trkpt>
            <trkpt lat="47.336288363" lon="3.685956860">
                <ele>234.000000</ele>
                <time>2013-04-25T16:17:21Z</time>
            </trkpt>
            <trkpt lat="47.336198362" lon="3.686241862">
                <ele>233.000000</ele>
                <time>2013-04-25T16:17:23Z</time>
            </trkpt>
            <trkpt lat="47.336123361" lon="3.686721867">
                <ele>233.000000</ele>
                <time>2013-04-25T16:17:26Z</time>
            </trkpt>
            <trkpt lat="47.336138361" lon="3.687216872">
                <ele>234.000000</ele>
                <time>2013-04-25T16:17:29Z</time>
            </trkpt>
            <trkpt lat="47.336153362" lon="3.687831878">
                <ele>235.000000</ele>
                <time>2013-04-25T16:17:33Z</time>
            </trkpt>
            <trkpt lat="47.336198362" lon="3.688281883">
                <ele>234.000000</ele>
                <time>2013-04-25T16:17:36Z</time>
            </trkpt>
            <trkpt lat="47.336288363" lon="3.689001890">
                <ele>233.000000</ele>
                <time>2013-04-25T16:17:41Z</time>
            </trkpt>
            <trkpt lat="47.336273363" lon="3.689331893">
                <ele>233.000000</ele>
                <time>2013-04-25T16:17:44Z</time>
            </trkpt>
            <trkpt lat="47.336303363" lon="3.689556896">
                <ele>233.000000</ele>
                <time>2013-04-25T16:17:47Z</time>
            </trkpt>
            <trkpt lat="47.336423364" lon="3.689691897">
                <ele>233.000000</ele>
                <time>2013-04-25T16:17:50Z</time>
            </trkpt>
            <trkpt lat="47.336528365" lon="3.689841898">
                <ele>231.000000</ele>
                <time>2013-04-25T16:17:52Z</time>
            </trkpt>
            <trkpt lat="47.336813368" lon="3.690291903">
                <ele>229.000000</ele>
                <time>2013-04-25T16:17:57Z</time>
            </trkpt>
            <trkpt lat="47.336948369" lon="3.690471905">
                <ele>229.000000</ele>
                <time>2013-04-25T16:17:59Z</time>
            </trkpt>
            <trkpt lat="47.337173372" lon="3.690726907">
                <ele>231.000000</ele>
                <time>2013-04-25T16:18:02Z</time>
            </trkpt>
            <trkpt lat="47.337548375" lon="3.691026910">
                <ele>233.000000</ele>
                <time>2013-04-25T16:18:06Z</time>
            </trkpt>
            <trkpt lat="47.338028380" lon="3.691416914">
                <ele>233.000000</ele>
                <time>2013-04-25T16:18:11Z</time>
            </trkpt>
            <trkpt lat="47.338268383" lon="3.691671917">
                <ele>235.000000</ele>
                <time>2013-04-25T16:18:14Z</time>
            </trkpt>
            <trkpt lat="47.338388384" lon="3.691836918">
                <ele>234.000000</ele>
                <time>2013-04-25T16:18:16Z</time>
            </trkpt>
            <trkpt lat="47.338553386" lon="3.692016920">
                <ele>237.000000</ele>
                <time>2013-04-25T16:18:19Z</time>
            </trkpt>
            <trkpt lat="47.338598386" lon="3.692256923">
                <ele>238.000000</ele>
                <time>2013-04-25T16:18:23Z</time>
            </trkpt>
            <trkpt lat="47.338583386" lon="3.692526925">
                <ele>232.000000</ele>
                <time>2013-04-25T16:18:26Z</time>
            </trkpt>
            <trkpt lat="47.338598386" lon="3.692811928">
                <ele>230.000000</ele>
                <time>2013-04-25T16:18:29Z</time>
            </trkpt>
            <trkpt lat="47.338613386" lon="3.693081931">
                <ele>231.000000</ele>
                <time>2013-04-25T16:18:32Z</time>
            </trkpt>
            <trkpt lat="47.338658387" lon="3.693306933">
                <ele>229.000000</ele>
                <time>2013-04-25T16:18:35Z</time>
            </trkpt>
            <trkpt lat="47.338718387" lon="3.693651937">
                <ele>225.000000</ele>
                <time>2013-04-25T16:18:41Z</time>
            </trkpt>
            <trkpt lat="47.338703387" lon="3.693861939">
                <ele>222.000000</ele>
                <time>2013-04-25T16:18:47Z</time>
            </trkpt>
            <trkpt lat="47.338628386" lon="3.694041940">
                <ele>218.000000</ele>
                <time>2013-04-25T16:18:51Z</time>
            </trkpt>
            <trkpt lat="47.338523385" lon="3.694206942">
                <ele>211.000000</ele>
                <time>2013-04-25T16:18:55Z</time>
            </trkpt>
            <trkpt lat="47.338418384" lon="3.694401944">
                <ele>210.000000</ele>
                <time>2013-04-25T16:18:59Z</time>
            </trkpt>
            <trkpt lat="47.338328383" lon="3.694581946">
                <ele>205.000000</ele>
                <time>2013-04-25T16:19:03Z</time>
            </trkpt>
            <trkpt lat="47.338133381" lon="3.694971950">
                <ele>205.000000</ele>
                <time>2013-04-25T16:19:11Z</time>
            </trkpt>
            <trkpt lat="47.337998380" lon="3.695196952">
                <ele>203.000000</ele>
                <time>2013-04-25T16:19:16Z</time>
            </trkpt>
            <trkpt lat="47.337908379" lon="3.695376954">
                <ele>205.000000</ele>
                <time>2013-04-25T16:19:20Z</time>
            </trkpt>
            <trkpt lat="47.337818378" lon="3.695571956">
                <ele>208.000000</ele>
                <time>2013-04-25T16:19:24Z</time>
            </trkpt>
            <trkpt lat="47.337743377" lon="3.695766958">
                <ele>211.000000</ele>
                <time>2013-04-25T16:19:29Z</time>
            </trkpt>
            <trkpt lat="47.337653377" lon="3.695946959">
                <ele>214.000000</ele>
                <time>2013-04-25T16:19:34Z</time>
            </trkpt>
            <trkpt lat="47.337443374" lon="3.696321963">
                <ele>215.000000</ele>
                <time>2013-04-25T16:19:40Z</time>
            </trkpt>
            <trkpt lat="47.337338373" lon="3.696531965">
                <ele>217.000000</ele>
                <time>2013-04-25T16:19:43Z</time>
            </trkpt>
            <trkpt lat="47.337128371" lon="3.696921969">
                <ele>218.000000</ele>
                <time>2013-04-25T16:19:49Z</time>
            </trkpt>
            <trkpt lat="47.337023370" lon="3.697071971">
                <ele>220.000000</ele>
                <time>2013-04-25T16:19:52Z</time>
            </trkpt>
            <trkpt lat="47.336903369" lon="3.697266973">
                <ele>221.000000</ele>
                <time>2013-04-25T16:19:55Z</time>
            </trkpt>
            <trkpt lat="47.336633366" lon="3.697716977">
                <ele>224.000000</ele>
                <time>2013-04-25T16:20:01Z</time>
            </trkpt>
            <trkpt lat="47.336438364" lon="3.698016980">
                <ele>225.000000</ele>
                <time>2013-04-25T16:20:05Z</time>
            </trkpt>
            <trkpt lat="47.336273363" lon="3.698301983">
                <ele>227.000000</ele>
                <time>2013-04-25T16:20:09Z</time>
            </trkpt>
            <trkpt lat="47.335988360" lon="3.698826988">
                <ele>225.000000</ele>
                <time>2013-04-25T16:20:15Z</time>
            </trkpt>
            <trkpt lat="47.335913359" lon="3.699036990">
                <ele>223.000000</ele>
                <time>2013-04-25T16:20:17Z</time>
            </trkpt>
            <trkpt lat="47.335823358" lon="3.699381994">
                <ele>222.000000</ele>
                <time>2013-04-25T16:20:20Z</time>
            </trkpt>
            <trkpt lat="47.335793358" lon="3.699621996">
                <ele>221.000000</ele>
                <time>2013-04-25T16:20:22Z</time>
            </trkpt>
            <trkpt lat="47.335673357" lon="3.700522005">
                <ele>222.000000</ele>
                <time>2013-04-25T16:20:30Z</time>
            </trkpt>
            <trkpt lat="47.335598356" lon="3.700867009">
                <ele>223.000000</ele>
                <time>2013-04-25T16:20:34Z</time>
            </trkpt>
            <trkpt lat="47.335508355" lon="3.701062011">
                <ele>222.000000</ele>
                <time>2013-04-25T16:20:37Z</time>
            </trkpt>
            <trkpt lat="47.335388354" lon="3.701287013">
                <ele>221.000000</ele>
                <time>2013-04-25T16:20:42Z</time>
            </trkpt>
            <trkpt lat="47.335238352" lon="3.701422014">
                <ele>220.000000</ele>
                <time>2013-04-25T16:20:46Z</time>
            </trkpt>
            <trkpt lat="47.335088351" lon="3.701572016">
                <ele>220.000000</ele>
                <time>2013-04-25T16:20:49Z</time>
            </trkpt>
            <trkpt lat="47.334938349" lon="3.701767018">
                <ele>220.000000</ele>
                <time>2013-04-25T16:20:52Z</time>
            </trkpt>
            <trkpt lat="47.334833348" lon="3.701902019">
                <ele>219.000000</ele>
                <time>2013-04-25T16:20:54Z</time>
            </trkpt>
            <trkpt lat="47.334683347" lon="3.702172022">
                <ele>218.000000</ele>
                <time>2013-04-25T16:20:57Z</time>
            </trkpt>
            <trkpt lat="47.334578346" lon="3.702397024">
                <ele>216.000000</ele>
                <time>2013-04-25T16:20:59Z</time>
            </trkpt>
            <trkpt lat="47.334428344" lon="3.702742027">
                <ele>216.000000</ele>
                <time>2013-04-25T16:21:02Z</time>
            </trkpt>
            <trkpt lat="47.334338343" lon="3.702982030">
                <ele>215.000000</ele>
                <time>2013-04-25T16:21:04Z</time>
            </trkpt>
            <trkpt lat="47.334128341" lon="3.703552036">
                <ele>211.000000</ele>
                <time>2013-04-25T16:21:09Z</time>
            </trkpt>
            <trkpt lat="47.333903339" lon="3.703837038">
                <ele>205.000000</ele>
                <time>2013-04-25T16:21:13Z</time>
            </trkpt>
            <trkpt lat="47.333753338" lon="3.703867039">
                <ele>204.000000</ele>
                <time>2013-04-25T16:21:15Z</time>
            </trkpt>
            <trkpt lat="47.333528335" lon="3.703882039">
                <ele>205.000000</ele>
                <time>2013-04-25T16:21:18Z</time>
            </trkpt>
            <trkpt lat="47.333303333" lon="3.703747037">
                <ele>207.000000</ele>
                <time>2013-04-25T16:21:21Z</time>
            </trkpt>
            <trkpt lat="47.333213332" lon="3.703567036">
                <ele>210.000000</ele>
                <time>2013-04-25T16:21:23Z</time>
            </trkpt>
            <trkpt lat="47.333093331" lon="3.703267033">
                <ele>211.000000</ele>
                <time>2013-04-25T16:21:26Z</time>
            </trkpt>
            <trkpt lat="47.332913329" lon="3.703087031">
                <ele>212.000000</ele>
                <time>2013-04-25T16:21:29Z</time>
            </trkpt>
            <trkpt lat="47.332748327" lon="3.703057031">
                <ele>213.000000</ele>
                <time>2013-04-25T16:21:31Z</time>
            </trkpt>
            <trkpt lat="47.332523325" lon="3.703162032">
                <ele>214.000000</ele>
                <time>2013-04-25T16:21:34Z</time>
            </trkpt>
            <trkpt lat="47.332013320" lon="3.703432034">
                <ele>217.000000</ele>
                <time>2013-04-25T16:21:41Z</time>
            </trkpt>
            <trkpt lat="47.331923319" lon="3.703582036">
                <ele>218.000000</ele>
                <time>2013-04-25T16:21:46Z</time>
            </trkpt>
            <trkpt lat="47.331833318" lon="3.703912039">
                <ele>218.000000</ele>
                <time>2013-04-25T16:21:51Z</time>
            </trkpt>
            <trkpt lat="47.331698317" lon="3.704242042">
                <ele>218.000000</ele>
                <time>2013-04-25T16:21:54Z</time>
            </trkpt>
            <trkpt lat="47.331548315" lon="3.704452045">
                <ele>215.000000</ele>
                <time>2013-04-25T16:21:56Z</time>
            </trkpt>
            <trkpt lat="47.331353314" lon="3.704632046">
                <ele>213.000000</ele>
                <time>2013-04-25T16:21:58Z</time>
            </trkpt>
            <trkpt lat="47.331068311" lon="3.704917049">
                <ele>211.000000</ele>
                <time>2013-04-25T16:22:01Z</time>
            </trkpt>
            <trkpt lat="47.330273303" lon="3.705727057">
                <ele>203.000000</ele>
                <time>2013-04-25T16:22:10Z</time>
            </trkpt>
            <trkpt lat="47.330108301" lon="3.705847058">
                <ele>202.000000</ele>
                <time>2013-04-25T16:22:12Z</time>
            </trkpt>
            <trkpt lat="47.329838298" lon="3.705952060">
                <ele>201.000000</ele>
                <time>2013-04-25T16:22:15Z</time>
            </trkpt>
            <trkpt lat="47.329553296" lon="3.706042060">
                <ele>201.000000</ele>
                <time>2013-04-25T16:22:18Z</time>
            </trkpt>
            <trkpt lat="47.329253293" lon="3.706072061">
                <ele>199.000000</ele>
                <time>2013-04-25T16:22:21Z</time>
            </trkpt>
            <trkpt lat="47.329058291" lon="3.706087061">
                <ele>198.000000</ele>
                <time>2013-04-25T16:22:23Z</time>
            </trkpt>
            <trkpt lat="47.328578286" lon="3.705997060">
                <ele>198.000000</ele>
                <time>2013-04-25T16:22:28Z</time>
            </trkpt>
            <trkpt lat="47.328308283" lon="3.705922059">
                <ele>198.000000</ele>
                <time>2013-04-25T16:22:31Z</time>
            </trkpt>
            <trkpt lat="47.328128281" lon="3.705967060">
                <ele>197.000000</ele>
                <time>2013-04-25T16:22:33Z</time>
            </trkpt>
            <trkpt lat="47.327918279" lon="3.706087061">
                <ele>198.000000</ele>
                <time>2013-04-25T16:22:36Z</time>
            </trkpt>
            <trkpt lat="47.327723277" lon="3.706177062">
                <ele>197.000000</ele>
                <time>2013-04-25T16:22:39Z</time>
            </trkpt>
            <trkpt lat="47.327528275" lon="3.706162062">
                <ele>198.000000</ele>
                <time>2013-04-25T16:22:42Z</time>
            </trkpt>
            <trkpt lat="47.327393274" lon="3.706012060">
                <ele>198.000000</ele>
                <time>2013-04-25T16:22:45Z</time>
            </trkpt>
            <trkpt lat="47.327333273" lon="3.705757058">
                <ele>198.000000</ele>
                <time>2013-04-25T16:22:48Z</time>
            </trkpt>
            <trkpt lat="47.327318273" lon="3.705547055">
                <ele>199.000000</ele>
                <time>2013-04-25T16:22:50Z</time>
            </trkpt>
            <trkpt lat="47.327258273" lon="3.705217052">
                <ele>200.000000</ele>
                <time>2013-04-25T16:22:53Z</time>
            </trkpt>
            <trkpt lat="47.327198272" lon="3.705007050">
                <ele>200.000000</ele>
                <time>2013-04-25T16:22:55Z</time>
            </trkpt>
            <trkpt lat="47.326973270" lon="3.704242042">
                <ele>202.000000</ele>
                <time>2013-04-25T16:23:02Z</time>
            </trkpt>
            <trkpt lat="47.326793268" lon="3.703717037">
                <ele>203.000000</ele>
                <time>2013-04-25T16:23:07Z</time>
            </trkpt>
            <trkpt lat="47.326718267" lon="3.703507035">
                <ele>204.000000</ele>
                <time>2013-04-25T16:23:09Z</time>
            </trkpt>
            <trkpt lat="47.326343263" lon="3.702562026">
                <ele>202.000000</ele>
                <time>2013-04-25T16:23:17Z</time>
            </trkpt>
            <trkpt lat="47.326133261" lon="3.702052021">
                <ele>200.000000</ele>
                <time>2013-04-25T16:23:21Z</time>
            </trkpt>
            <trkpt lat="47.325833258" lon="3.701272013">
                <ele>197.000000</ele>
                <time>2013-04-25T16:23:27Z</time>
            </trkpt>
            <trkpt lat="47.325698257" lon="3.700927009">
                <ele>196.000000</ele>
                <time>2013-04-25T16:23:30Z</time>
            </trkpt>
            <trkpt lat="47.325488255" lon="3.700747007">
                <ele>194.000000</ele>
                <time>2013-04-25T16:23:33Z</time>
            </trkpt>
            <trkpt lat="47.325308253" lon="3.700687007">
                <ele>195.000000</ele>
                <time>2013-04-25T16:23:35Z</time>
            </trkpt>
            <trkpt lat="47.325113251" lon="3.700672007">
                <ele>195.000000</ele>
                <time>2013-04-25T16:23:37Z</time>
            </trkpt>
            <trkpt lat="47.324048240" lon="3.700567006">
                <ele>200.000000</ele>
                <time>2013-04-25T16:23:47Z</time>
            </trkpt>
            <trkpt lat="47.323598236" lon="3.700357004">
                <ele>206.000000</ele>
                <time>2013-04-25T16:23:52Z</time>
            </trkpt>
            <trkpt lat="47.323433234" lon="3.700252003">
                <ele>208.000000</ele>
                <time>2013-04-25T16:23:54Z</time>
            </trkpt>
            <trkpt lat="47.323163232" lon="3.700117001">
                <ele>210.000000</ele>
                <time>2013-04-25T16:23:57Z</time>
            </trkpt>
            <trkpt lat="47.322968230" lon="3.700057001">
                <ele>212.000000</ele>
                <time>2013-04-25T16:23:59Z</time>
            </trkpt>
            <trkpt lat="47.322668227" lon="3.700087001">
                <ele>214.000000</ele>
                <time>2013-04-25T16:24:02Z</time>
            </trkpt>
            <trkpt lat="47.322488225" lon="3.700207002">
                <ele>216.000000</ele>
                <time>2013-04-25T16:24:04Z</time>
            </trkpt>
            <trkpt lat="47.321918219" lon="3.700597006">
                <ele>219.000000</ele>
                <time>2013-04-25T16:24:10Z</time>
            </trkpt>
            <trkpt lat="47.321108211" lon="3.701107011">
                <ele>222.000000</ele>
                <time>2013-04-25T16:24:19Z</time>
            </trkpt>
            <trkpt lat="47.320943209" lon="3.701182012">
                <ele>224.000000</ele>
                <time>2013-04-25T16:24:21Z</time>
            </trkpt>
            <trkpt lat="47.320733207" lon="3.701152012">
                <ele>225.000000</ele>
                <time>2013-04-25T16:24:24Z</time>
            </trkpt>
            <trkpt lat="47.320553206" lon="3.700927009">
                <ele>228.000000</ele>
                <time>2013-04-25T16:24:29Z</time>
            </trkpt>
            <trkpt lat="47.320478205" lon="3.700702007">
                <ele>231.000000</ele>
                <time>2013-04-25T16:24:34Z</time>
            </trkpt>
            <trkpt lat="47.320343203" lon="3.700522005">
                <ele>231.000000</ele>
                <time>2013-04-25T16:24:37Z</time>
            </trkpt>
            <trkpt lat="47.320223202" lon="3.700417004">
                <ele>232.000000</ele>
                <time>2013-04-25T16:24:39Z</time>
            </trkpt>
            <trkpt lat="47.320028200" lon="3.700222002">
                <ele>233.000000</ele>
                <time>2013-04-25T16:24:42Z</time>
            </trkpt>
            <trkpt lat="47.319878199" lon="3.700132001">
                <ele>233.000000</ele>
                <time>2013-04-25T16:24:44Z</time>
            </trkpt>
            <trkpt lat="47.319638196" lon="3.700027000">
                <ele>233.000000</ele>
                <time>2013-04-25T16:24:47Z</time>
            </trkpt>
            <trkpt lat="47.319398194" lon="3.699967000">
                <ele>233.000000</ele>
                <time>2013-04-25T16:24:50Z</time>
            </trkpt>
            <trkpt lat="47.319188192" lon="3.699921999">
                <ele>233.000000</ele>
                <time>2013-04-25T16:24:54Z</time>
            </trkpt>
            <trkpt lat="47.319068191" lon="3.699756998">
                <ele>235.000000</ele>
                <time>2013-04-25T16:25:00Z</time>
            </trkpt>
            <trkpt lat="47.319038190" lon="3.699216992">
                <ele>237.000000</ele>
                <time>2013-04-25T16:25:06Z</time>
            </trkpt>
            <trkpt lat="47.319008190" lon="3.698751988">
                <ele>237.000000</ele>
                <time>2013-04-25T16:25:10Z</time>
            </trkpt>
            <trkpt lat="47.318948189" lon="3.698361984">
                <ele>237.000000</ele>
                <time>2013-04-25T16:25:13Z</time>
            </trkpt>
            <trkpt lat="47.318918189" lon="3.698106981">
                <ele>237.000000</ele>
                <time>2013-04-25T16:25:15Z</time>
            </trkpt>
            <trkpt lat="47.318813188" lon="3.697761978">
                <ele>237.000000</ele>
                <time>2013-04-25T16:25:18Z</time>
            </trkpt>
            <trkpt lat="47.318633186" lon="3.697221972">
                <ele>237.000000</ele>
                <time>2013-04-25T16:25:23Z</time>
            </trkpt>
            <trkpt lat="47.318378184" lon="3.696456965">
                <ele>237.000000</ele>
                <time>2013-04-25T16:25:30Z</time>
            </trkpt>
            <trkpt lat="47.318228182" lon="3.696006960">
                <ele>237.000000</ele>
                <time>2013-04-25T16:25:34Z</time>
            </trkpt>
            <trkpt lat="47.318183182" lon="3.695811958">
                <ele>237.000000</ele>
                <time>2013-04-25T16:25:36Z</time>
            </trkpt>
            <trkpt lat="47.318078181" lon="3.695676957">
                <ele>238.000000</ele>
                <time>2013-04-25T16:25:47Z</time>
            </trkpt>
            <trkpt lat="47.317943179" lon="3.695601956">
                <ele>238.000000</ele>
                <time>2013-04-25T16:25:50Z</time>
            </trkpt>
            <trkpt lat="47.317838178" lon="3.695451955">
                <ele>238.000000</ele>
                <time>2013-04-25T16:25:52Z</time>
            </trkpt>
            <trkpt lat="47.317733177" lon="3.695256953">
                <ele>240.000000</ele>
                <time>2013-04-25T16:25:54Z</time>
            </trkpt>
            <trkpt lat="47.317478175" lon="3.694746947">
                <ele>240.000000</ele>
                <time>2013-04-25T16:25:58Z</time>
            </trkpt>
            <trkpt lat="47.316908169" lon="3.693531935">
                <ele>238.000000</ele>
                <time>2013-04-25T16:26:07Z</time>
            </trkpt>
            <trkpt lat="47.316773168" lon="3.693096931">
                <ele>238.000000</ele>
                <time>2013-04-25T16:26:10Z</time>
            </trkpt>
            <trkpt lat="47.316578166" lon="3.692496925">
                <ele>239.000000</ele>
                <time>2013-04-25T16:26:14Z</time>
            </trkpt>
            <trkpt lat="47.316188162" lon="3.691656917">
                <ele>239.000000</ele>
                <time>2013-04-25T16:26:20Z</time>
            </trkpt>
            <trkpt lat="47.315843158" lon="3.690906909">
                <ele>238.000000</ele>
                <time>2013-04-25T16:26:25Z</time>
            </trkpt>
            <trkpt lat="47.315603156" lon="3.690351904">
                <ele>240.000000</ele>
                <time>2013-04-25T16:26:29Z</time>
            </trkpt>
            <trkpt lat="47.315453155" lon="3.690081901">
                <ele>240.000000</ele>
                <time>2013-04-25T16:26:31Z</time>
            </trkpt>
            <trkpt lat="47.315213152" lon="3.689706897">
                <ele>240.000000</ele>
                <time>2013-04-25T16:26:33Z</time>
            </trkpt>
            <trkpt lat="47.315033150" lon="3.689466895">
                <ele>239.000000</ele>
                <time>2013-04-25T16:26:36Z</time>
            </trkpt>
            <trkpt lat="47.314688147" lon="3.689031890">
                <ele>240.000000</ele>
                <time>2013-04-25T16:26:40Z</time>
            </trkpt>
            <trkpt lat="47.314403144" lon="3.688716887">
                <ele>240.000000</ele>
                <time>2013-04-25T16:26:43Z</time>
            </trkpt>
            <trkpt lat="47.312888129" lon="3.686976870">
                <ele>245.000000</ele>
                <time>2013-04-25T16:27:00Z</time>
            </trkpt>
            <trkpt lat="47.312738127" lon="3.686556866">
                <ele>246.000000</ele>
                <time>2013-04-25T16:27:05Z</time>
            </trkpt>
            <trkpt lat="47.312468125" lon="3.685896859">
                <ele>246.000000</ele>
                <time>2013-04-25T16:27:08Z</time>
            </trkpt>
            <trkpt lat="47.312333123" lon="3.685671857">
                <ele>245.000000</ele>
                <time>2013-04-25T16:27:10Z</time>
            </trkpt>
            <trkpt lat="47.312198122" lon="3.685461855">
                <ele>246.000000</ele>
                <time>2013-04-25T16:27:12Z</time>
            </trkpt>
            <trkpt lat="47.312078121" lon="3.685146851">
                <ele>244.000000</ele>
                <time>2013-04-25T16:27:15Z</time>
            </trkpt>
            <trkpt lat="47.312063121" lon="3.684921849">
                <ele>243.000000</ele>
                <time>2013-04-25T16:27:17Z</time>
            </trkpt>
            <trkpt lat="47.312048120" lon="3.684651847">
                <ele>244.000000</ele>
                <time>2013-04-25T16:27:20Z</time>
            </trkpt>
            <trkpt lat="47.311988120" lon="3.684456845">
                <ele>244.000000</ele>
                <time>2013-04-25T16:27:22Z</time>
            </trkpt>
            <trkpt lat="47.311853119" lon="3.684111841">
                <ele>243.000000</ele>
                <time>2013-04-25T16:27:24Z</time>
            </trkpt>
            <trkpt lat="47.311778118" lon="3.683856839">
                <ele>243.000000</ele>
                <time>2013-04-25T16:27:27Z</time>
            </trkpt>
            <trkpt lat="47.311703117" lon="3.683466835">
                <ele>243.000000</ele>
                <time>2013-04-25T16:27:30Z</time>
            </trkpt>
            <trkpt lat="47.311688117" lon="3.683196832">
                <ele>244.000000</ele>
                <time>2013-04-25T16:27:32Z</time>
            </trkpt>
            <trkpt lat="47.311688117" lon="3.682746827">
                <ele>245.000000</ele>
                <time>2013-04-25T16:27:35Z</time>
            </trkpt>
            <trkpt lat="47.311643116" lon="3.682476825">
                <ele>245.000000</ele>
                <time>2013-04-25T16:27:37Z</time>
            </trkpt>
            <trkpt lat="47.311373114" lon="3.681621816">
                <ele>244.000000</ele>
                <time>2013-04-25T16:27:44Z</time>
            </trkpt>
            <trkpt lat="47.311313113" lon="3.681411814">
                <ele>246.000000</ele>
                <time>2013-04-25T16:27:46Z</time>
            </trkpt>
            <trkpt lat="47.311328113" lon="3.681051811">
                <ele>245.000000</ele>
                <time>2013-04-25T16:27:49Z</time>
            </trkpt>
            <trkpt lat="47.311343113" lon="3.680691807">
                <ele>244.000000</ele>
                <time>2013-04-25T16:27:51Z</time>
            </trkpt>
            <trkpt lat="47.311298113" lon="3.680436804">
                <ele>244.000000</ele>
                <time>2013-04-25T16:27:54Z</time>
            </trkpt>
            <trkpt lat="47.311223112" lon="3.680016800">
                <ele>243.000000</ele>
                <time>2013-04-25T16:27:57Z</time>
            </trkpt>
            <trkpt lat="47.311148111" lon="3.679731797">
                <ele>242.000000</ele>
                <time>2013-04-25T16:27:59Z</time>
            </trkpt>
            <trkpt lat="47.311013110" lon="3.679326793">
                <ele>241.000000</ele>
                <time>2013-04-25T16:28:02Z</time>
            </trkpt>
            <trkpt lat="47.310848108" lon="3.678936789">
                <ele>238.000000</ele>
                <time>2013-04-25T16:28:05Z</time>
            </trkpt>
            <trkpt lat="47.310728107" lon="3.678681787">
                <ele>236.000000</ele>
                <time>2013-04-25T16:28:07Z</time>
            </trkpt>
            <trkpt lat="47.310578106" lon="3.678321783">
                <ele>234.000000</ele>
                <time>2013-04-25T16:28:10Z</time>
            </trkpt>
            <trkpt lat="47.310488105" lon="3.678081781">
                <ele>231.000000</ele>
                <time>2013-04-25T16:28:12Z</time>
            </trkpt>
            <trkpt lat="47.310368104" lon="3.677796778">
                <ele>229.000000</ele>
                <time>2013-04-25T16:28:14Z</time>
            </trkpt>
            <trkpt lat="47.310518105" lon="3.677436774">
                <ele>224.000000</ele>
                <time>2013-04-25T16:28:21Z</time>
            </trkpt>
            <trkpt lat="47.310653107" lon="3.677331773">
                <ele>220.000000</ele>
                <time>2013-04-25T16:28:23Z</time>
            </trkpt>
            <trkpt lat="47.310893109" lon="3.677121771">
                <ele>218.000000</ele>
                <time>2013-04-25T16:28:26Z</time>
            </trkpt>
            <trkpt lat="47.311178112" lon="3.676881769">
                <ele>219.000000</ele>
                <time>2013-04-25T16:28:29Z</time>
            </trkpt>
            <trkpt lat="47.311343113" lon="3.676716767">
                <ele>216.000000</ele>
                <time>2013-04-25T16:28:31Z</time>
            </trkpt>
            <trkpt lat="47.311958120" lon="3.676101761">
                <ele>210.000000</ele>
                <time>2013-04-25T16:28:38Z</time>
            </trkpt>
            <trkpt lat="47.312183122" lon="3.675861759">
                <ele>206.000000</ele>
                <time>2013-04-25T16:28:41Z</time>
            </trkpt>
            <trkpt lat="47.312408124" lon="3.675636756">
                <ele>206.000000</ele>
                <time>2013-04-25T16:28:44Z</time>
            </trkpt>
            <trkpt lat="47.312963130" lon="3.675141751">
                <ele>203.000000</ele>
                <time>2013-04-25T16:28:51Z</time>
            </trkpt>
            <trkpt lat="47.313173132" lon="3.674916749">
                <ele>201.000000</ele>
                <time>2013-04-25T16:28:54Z</time>
            </trkpt>
            <trkpt lat="47.313518135" lon="3.674796748">
                <ele>198.000000</ele>
                <time>2013-04-25T16:29:01Z</time>
            </trkpt>
            <trkpt lat="47.313608136" lon="3.675021750">
                <ele>192.000000</ele>
                <time>2013-04-25T16:29:04Z</time>
            </trkpt>
            <trkpt lat="47.313758138" lon="3.675336753">
                <ele>190.000000</ele>
                <time>2013-04-25T16:29:07Z</time>
            </trkpt>
            <trkpt lat="47.313983140" lon="3.675711757">
                <ele>191.000000</ele>
                <time>2013-04-25T16:29:10Z</time>
            </trkpt>
            <trkpt lat="47.314148141" lon="3.675951760">
                <ele>189.000000</ele>
                <time>2013-04-25T16:29:12Z</time>
            </trkpt>
            <trkpt lat="47.314448144" lon="3.676416764">
                <ele>185.000000</ele>
                <time>2013-04-25T16:29:16Z</time>
            </trkpt>
            <trkpt lat="47.315093151" lon="3.677436774">
                <ele>188.000000</ele>
                <time>2013-04-25T16:29:26Z</time>
            </trkpt>
            <trkpt lat="47.315228152" lon="3.677616776">
                <ele>188.000000</ele>
                <time>2013-04-25T16:29:28Z</time>
            </trkpt>
            <trkpt lat="47.315918159" lon="3.678486785">
                <ele>186.000000</ele>
                <time>2013-04-25T16:29:38Z</time>
            </trkpt>
            <trkpt lat="47.316278163" lon="3.678936789">
                <ele>189.000000</ele>
                <time>2013-04-25T16:29:45Z</time>
            </trkpt>
        </trkseg>
    </trk>
</gpx>
